Time;durP1;ratioP1;P1;durP2;ratioP2;P2;SDS_P1;SDS_P2;PMS_P1;PMS_P2;Temp;Humidity;BMP_temperature;BMP_pressure;BME280_temperature;BME280_humidity;BME280_pressure;Samples;Min_cycle;Max_cycle;Signal;HPM_P1;HPM_P2
2023/06/26 00:01:17;;;;;;;9.52;8.60;;;21.60;99.90;;;;;;5045476;28;20466;-81
2023/06/26 00:03:42;;;;;;;9.45;8.32;;;21.50;99.90;;;;;;5039414;28;20044;-81
2023/06/26 00:06:15;;;;;;;9.60;8.07;;;21.50;99.90;;;;;;5068297;28;20090;-81
2023/06/26 00:08:41;;;;;;;8.57;7.55;;;21.50;99.90;;;;;;5037161;28;20057;-81
2023/06/26 00:11:07;;;;;;;11.50;8.35;;;21.50;99.90;;;;;;5018713;28;20184;-81
2023/06/26 00:13:34;;;;;;;9.13;8.10;;;21.40;99.90;;;;;;5037855;28;20036;-81
2023/06/26 00:16:02;;;;;;;9.10;8.20;;;21.40;99.90;;;;;;5024108;28;20467;-81
2023/06/26 00:18:28;;;;;;;9.38;8.38;;;21.50;99.90;;;;;;5069695;28;20143;-81
2023/06/26 00:20:54;;;;;;;8.75;7.85;;;21.50;99.90;;;;;;5039365;28;20085;-81
2023/06/26 00:23:20;;;;;;;9.38;8.43;;;21.50;99.90;;;;;;5041705;28;20067;-81
2023/06/26 00:25:45;;;;;;;9.02;8.13;;;21.60;99.90;;;;;;5024477;28;20063;-81
2023/06/26 00:28:11;;;;;;;9.65;8.65;;;21.50;99.90;;;;;;5036037;28;20059;-81
2023/06/26 00:30:37;;;;;;;9.55;8.57;;;21.50;99.90;;;;;;5031672;28;20052;-81
2023/06/26 00:33:03;;;;;;;10.07;8.20;;;21.50;99.90;;;;;;5022526;28;20036;-81
2023/06/26 00:35:32;;;;;;;9.77;8.50;;;21.50;99.90;;;;;;5027746;28;20028;-81
2023/06/26 00:37:58;;;;;;;9.68;8.68;;;21.40;99.90;;;;;;5041879;28;20478;-81
2023/06/26 00:40:23;;;;;;;10.90;9.05;;;21.40;99.90;;;;;;5037907;28;20057;-80
2023/06/26 00:42:50;;;;;;;10.35;8.75;;;21.40;99.90;;;;;;5022952;28;20449;-81
2023/06/26 00:45:15;;;;;;;12.57;9.68;;;21.40;99.90;;;;;;5032255;28;20155;-81
2023/06/26 00:47:41;;;;;;;11.50;8.95;;;21.40;99.90;;;;;;5036894;28;20147;-81
2023/06/26 00:50:08;;;;;;;10.27;9.02;;;21.40;99.90;;;;;;5018987;28;20511;-81
2023/06/26 00:52:34;;;;;;;10.32;9.25;;;21.40;99.90;;;;;;5038259;28;20085;-81
2023/06/26 00:55:00;;;;;;;13.10;10.00;;;21.40;99.90;;;;;;5041229;28;20491;-81
2023/06/26 00:57:26;;;;;;;10.60;9.50;;;21.40;99.90;;;;;;5037185;28;20475;-81
2023/06/26 00:59:52;;;;;;;12.40;9.70;;;21.30;99.90;;;;;;5027132;28;20048;-81
2023/06/26 01:02:19;;;;;;;12.45;9.77;;;21.30;99.90;;;;;;5039613;28;20686;-81
2023/06/26 01:04:50;;;;;;;10.80;9.70;;;21.30;99.90;;;;;;5064188;28;20369;-81
2023/06/26 01:07:18;;;;;;;14.32;10.10;;;21.20;99.90;;;;;;5069603;28;20052;-81
2023/06/26 01:09:48;;;;;;;10.40;8.75;;;21.20;99.90;;;;;;5029145;28;20044;-81
2023/06/26 01:12:14;;;;;;;13.30;10.00;;;21.20;99.90;;;;;;5068854;28;20105;-81
2023/06/26 01:14:41;;;;;;;13.45;9.63;;;21.20;99.90;;;;;;5043125;28;20060;-81
2023/06/26 01:17:11;;;;;;;13.50;9.95;;;21.10;99.90;;;;;;5041026;28;20051;-81
2023/06/26 01:19:37;;;;;;;11.07;9.57;;;21.10;99.90;;;;;;5057795;28;20049;-81
2023/06/26 01:22:16;;;;;;;10.63;9.40;;;21.00;99.90;;;;;;5027239;28;20513;-81
2023/06/26 01:24:52;;;;;;;10.55;9.45;;;20.90;99.90;;;;;;5029194;28;20508;-81
2023/06/26 01:27:21;;;;;;;11.98;9.63;;;21.00;99.90;;;;;;5027120;28;20512;-81
2023/06/26 01:29:49;;;;;;;13.57;9.52;;;21.00;99.90;;;;;;5030806;28;20381;-81
2023/06/26 01:32:15;;;;;;;11.05;9.40;;;20.90;99.90;;;;;;5042515;28;20051;-81
2023/06/26 01:34:43;;;;;;;12.02;10.20;;;21.00;99.90;;;;;;5038097;28;20049;-81
2023/06/26 01:37:08;;;;;;;10.48;8.88;;;21.00;99.90;;;;;;5041984;28;20040;-81
2023/06/26 01:39:34;;;;;;;10.52;9.52;;;20.90;99.90;;;;;;5042789;28;20101;-81
2023/06/26 01:42:00;;;;;;;11.95;9.32;;;20.90;99.90;;;;;;5036109;28;20044;-81
2023/06/26 01:44:31;;;;;;;11.48;10.00;;;20.90;99.90;;;;;;5041487;28;20119;-81
2023/06/26 01:47:03;;;;;;;12.43;10.00;;;20.80;99.90;;;;;;5071305;28;20066;-81
2023/06/26 01:49:39;;;;;;;10.57;9.40;;;20.80;99.90;;;;;;5022890;28;20051;-81
2023/06/26 01:52:21;;;;;;;11.30;9.27;;;20.80;99.90;;;;;;5042000;28;20056;-81
2023/06/26 01:55:04;;;;;;;11.13;10.02;;;20.80;99.90;;;;;;5043678;28;20052;-81
2023/06/26 01:57:31;;;;;;;11.77;9.90;;;20.70;99.90;;;;;;5039152;28;20060;-81
2023/06/26 01:59:58;;;;;;;11.85;10.07;;;20.60;99.90;;;;;;5041345;28;20131;-80
2023/06/26 02:02:25;;;;;;;11.55;10.15;;;20.60;99.90;;;;;;5042408;28;20119;-81
2023/06/26 02:04:51;;;;;;;12.30;10.40;;;20.70;99.90;;;;;;5035925;28;20522;-81
2023/06/26 02:07:17;;;;;;;12.23;9.85;;;20.60;99.90;;;;;;5034481;28;20068;-81
2023/06/26 02:09:43;;;;;;;12.32;10.50;;;20.60;99.90;;;;;;5044758;28;20611;-81
2023/06/26 02:12:09;;;;;;;11.02;9.93;;;20.60;99.90;;;;;;5042061;28;20049;-81
2023/06/26 02:14:34;;;;;;;11.07;9.85;;;20.60;99.90;;;;;;5036012;28;20055;-81
2023/06/26 02:17:00;;;;;;;11.48;10.27;;;20.50;99.90;;;;;;5040556;28;20475;-81
2023/06/26 02:19:27;;;;;;;14.30;9.15;;;20.50;99.90;;;;;;5026974;28;20045;-81
2023/06/26 02:21:54;;;;;;;11.02;9.82;;;20.50;99.90;;;;;;5036119;28;20048;-81
2023/06/26 02:24:20;;;;;;;11.30;10.15;;;20.50;99.90;;;;;;5041949;28;20059;-81
2023/06/26 02:26:45;;;;;;;10.05;8.88;;;20.50;99.90;;;;;;5037850;28;20032;-81
2023/06/26 02:29:12;;;;;;;10.93;9.55;;;20.50;99.90;;;;;;5021461;28;20064;-81
2023/06/26 02:31:38;;;;;;;10.43;9.35;;;20.50;99.90;;;;;;5039112;28;20051;-80
2023/06/26 02:34:04;;;;;;;11.00;9.63;;;20.50;99.90;;;;;;5038612;28;20049;-81
2023/06/26 02:36:29;;;;;;;10.65;9.55;;;20.40;99.90;;;;;;5032810;28;20052;-81
2023/06/26 02:38:55;;;;;;;11.15;9.98;;;20.50;99.90;;;;;;5042951;28;20072;-81
2023/06/26 02:41:21;;;;;;;10.50;9.40;;;20.50;99.90;;;;;;5040909;28;20052;-81
2023/06/26 02:43:47;;;;;;;11.35;9.10;;;20.50;99.90;;;;;;5024736;28;20064;-81
2023/06/26 02:46:12;;;;;;;12.00;10.38;;;20.50;99.90;;;;;;5066329;28;20513;-81
2023/06/26 02:48:38;;;;;;;13.07;10.00;;;20.60;99.90;;;;;;5042592;28;20036;-81
2023/06/26 02:51:04;;;;;;;12.65;10.75;;;20.60;99.90;;;;;;5025201;28;20044;-81
2023/06/26 02:53:31;;;;;;;11.73;10.50;;;20.60;99.90;;;;;;5041588;28;20064;-81
2023/06/26 02:55:56;;;;;;;12.30;10.40;;;20.60;99.90;;;;;;5042913;28;20047;-81
2023/06/26 02:58:22;;;;;;;11.55;10.02;;;20.70;99.90;;;;;;5035437;28;20478;-80
2023/06/26 03:00:50;;;;;;;13.45;10.38;;;20.60;99.90;;;;;;5039147;28;20040;-81
2023/06/26 03:03:16;;;;;;;11.73;10.52;;;20.60;99.90;;;;;;5066964;28;20120;-80
2023/06/26 03:05:41;;;;;;;12.25;10.20;;;20.70;99.90;;;;;;5029004;28;20214;-81
2023/06/26 03:08:07;;;;;;;11.85;10.25;;;20.70;99.90;;;;;;5034540;28;20465;-81
2023/06/26 03:10:32;;;;;;;14.00;10.48;;;20.70;99.90;;;;;;5021736;28;20036;-81
2023/06/26 03:12:58;;;;;;;15.23;11.00;;;20.80;99.90;;;;;;5027121;28;20471;-81
2023/06/26 03:15:24;;;;;;;11.68;10.48;;;20.80;99.90;;;;;;5037784;28;20040;-81
2023/06/26 03:17:49;;;;;;;15.05;11.20;;;20.80;99.90;;;;;;5030581;28;20112;-81
2023/06/26 03:20:15;;;;;;;11.00;9.95;;;20.80;99.90;;;;;;5038313;28;20123;-81
2023/06/26 03:22:41;;;;;;;13.15;10.77;;;20.70;99.90;;;;;;5020188;28;20516;-81
2023/06/26 03:25:07;;;;;;;11.10;9.93;;;20.80;99.90;;;;;;5031401;28;20106;-81
2023/06/26 03:27:33;;;;;;;11.73;10.52;;;20.70;99.90;;;;;;5025686;28;20068;-81
2023/06/26 03:29:58;;;;;;;12.85;10.73;;;20.80;99.90;;;;;;5067919;28;20091;-80
2023/06/26 03:32:24;;;;;;;14.75;11.00;;;20.70;99.90;;;;;;5034663;28;20045;-81
2023/06/26 03:34:50;;;;;;;13.63;10.65;;;20.80;99.90;;;;;;5032632;28;20040;-81
2023/06/26 03:37:15;;;;;;;12.27;10.98;;;20.80;99.90;;;;;;5031818;28;20426;-81
2023/06/26 03:39:41;;;;;;;13.05;11.30;;;20.80;99.90;;;;;;5044314;28;20269;-81
2023/06/26 03:42:07;;;;;;;11.52;10.32;;;20.80;99.90;;;;;;5040712;28;20048;-81
2023/06/26 03:44:33;;;;;;;13.18;11.35;;;20.80;99.90;;;;;;5025226;28;20174;-81
2023/06/26 03:46:58;;;;;;;16.08;11.63;;;20.80;99.90;;;;;;5014992;28;20068;-81
2023/06/26 03:49:24;;;;;;;16.30;11.63;;;20.80;99.90;;;;;;5020995;28;20491;-80
2023/06/26 03:51:52;;;;;;;15.80;12.18;;;20.90;99.90;;;;;;5042676;28;20252;-81
2023/06/26 03:54:18;;;;;;;13.05;11.55;;;20.90;99.90;;;;;;5059090;28;20032;-80
2023/06/26 03:56:44;;;;;;;12.18;10.88;;;20.90;99.90;;;;;;5034699;28;20599;-81
2023/06/26 03:59:10;;;;;;;12.73;11.43;;;20.90;99.90;;;;;;5025295;28;20041;-81
2023/06/26 04:01:37;;;;;;;12.70;11.40;;;20.90;99.90;;;;;;5035903;28;20545;-81
2023/06/26 04:04:03;;;;;;;12.07;10.40;;;20.80;99.90;;;;;;5038077;28;20782;-81
2023/06/26 04:06:31;;;;;;;14.05;11.60;;;20.80;99.90;;;;;;5025961;28;20048;-80
2023/06/26 04:08:57;;;;;;;13.65;11.15;;;20.80;99.90;;;;;;5042585;28;20048;-80
2023/06/26 04:11:23;;;;;;;20.55;10.68;;;20.80;99.90;;;;;;5039584;28;20047;-81
2023/06/26 04:13:49;;;;;;;13.80;11.15;;;20.70;99.90;;;;;;5052554;28;20155;-81
2023/06/26 04:16:15;;;;;;;16.15;11.23;;;20.70;99.90;;;;;;5037858;28;20442;-81
2023/06/26 04:18:41;;;;;;;13.45;10.82;;;20.70;99.90;;;;;;5068928;28;20063;-80
2023/06/26 04:21:12;;;;;;;11.77;10.32;;;20.80;99.90;;;;;;5071973;28;20501;-80
2023/06/26 04:23:39;;;;;;;11.25;9.98;;;20.80;99.90;;;;;;5024606;28;20116;-81
2023/06/26 04:26:06;;;;;;;12.25;10.10;;;20.90;99.90;;;;;;5036764;28;20044;-81
2023/06/26 04:28:35;;;;;;;12.95;10.00;;;20.90;99.90;;;;;;5033326;28;20040;-80
2023/06/26 04:31:04;;;;;;;15.50;10.75;;;21.10;99.90;;;;;;5031791;28;20559;-81
2023/06/26 04:33:29;;;;;;;12.10;10.32;;;21.20;99.90;;;;;;5041155;28;20345;-80
2023/06/26 04:35:55;;;;;;;12.77;10.50;;;21.30;99.90;;;;;;5020382;28;20063;-80
2023/06/26 04:38:21;;;;;;;14.65;9.98;;;21.30;99.90;;;;;;5066530;28;20641;-81
2023/06/26 04:40:47;;;;;;;10.70;9.18;;;21.40;99.90;;;;;;5046170;28;20128;-80
2023/06/26 04:43:13;;;;;;;13.55;8.70;;;21.50;99.90;;;;;;5036707;28;20399;-81
2023/06/26 04:45:39;;;;;;;12.50;9.02;;;21.60;99.90;;;;;;5042205;28;20043;-80
2023/06/26 04:48:05;;;;;;;13.73;9.00;;;21.70;99.90;;;;;;5041417;28;20530;-80
2023/06/26 04:50:33;;;;;;;11.35;8.57;;;21.70;99.90;;;;;;5020241;28;20055;-80
2023/06/26 04:52:59;;;;;;;12.02;8.38;;;21.70;99.90;;;;;;5040448;28;20036;-81
2023/06/26 04:55:25;;;;;;;12.82;8.82;;;21.70;99.90;;;;;;5040481;28;20036;-80
2023/06/26 04:57:51;;;;;;;10.98;8.77;;;21.80;99.90;;;;;;5023816;28;20051;-81
2023/06/26 05:00:17;;;;;;;14.35;8.15;;;21.80;99.90;;;;;;5032920;28;20032;-80
2023/06/26 05:02:43;;;;;;;10.98;7.38;;;21.80;99.90;;;;;;5034453;28;20045;-81
2023/06/26 05:05:10;;;;;;;12.48;8.30;;;21.70;99.90;;;;;;5034199;28;20047;-81
2023/06/26 05:07:36;;;;;;;11.77;8.13;;;21.70;99.90;;;;;;5041369;28;20044;-81
2023/06/26 05:10:02;;;;;;;14.50;8.38;;;21.60;99.90;;;;;;5028183;28;20040;-80
2023/06/26 05:12:27;;;;;;;14.60;8.40;;;21.50;99.90;;;;;;5020778;28;20076;-80
2023/06/26 05:14:55;;;;;;;15.32;8.50;;;21.50;99.90;;;;;;5036430;28;20155;-80
2023/06/26 05:17:21;;;;;;;13.25;8.55;;;21.50;99.90;;;;;;5041403;28;20388;-81
2023/06/26 05:19:47;;;;;;;13.65;8.38;;;21.30;99.90;;;;;;5035667;28;20055;-81
2023/06/26 05:22:16;;;;;;;16.95;9.20;;;21.30;99.90;;;;;;5024334;28;20048;-81
2023/06/26 05:24:46;;;;;;;11.07;8.38;;;21.20;99.90;;;;;;5037014;28;20393;-81
2023/06/26 05:27:19;;;;;;;17.73;9.18;;;21.00;99.90;;;;;;5036775;28;20066;-81
2023/06/26 05:29:45;;;;;;;28.45;9.20;;;20.80;99.90;;;;;;5033924;28;20072;-82
2023/06/26 05:32:13;;;;;;;13.32;9.05;;;20.80;99.90;;;;;;5039948;28;20132;-83
2023/06/26 05:34:39;;;;;;;23.02;9.75;;;20.70;99.90;;;;;;5039906;28;20530;-82
2023/06/26 05:37:06;;;;;;;16.75;9.77;;;20.60;99.90;;;;;;5039264;28;20056;-81
2023/06/26 05:39:32;;;;;;;15.70;9.20;;;20.40;99.90;;;;;;5037744;28;20101;-81
2023/06/26 05:41:58;;;;;;;16.55;9.20;;;20.30;99.90;;;;;;5023633;28;20603;-81
2023/06/26 05:44:24;;;;;;;15.40;9.07;;;20.30;99.90;;;;;;5041811;28;20098;-81
2023/06/26 05:46:50;;;;;;;15.35;8.65;;;20.30;99.90;;;;;;5039545;28;20501;-81
2023/06/26 05:49:15;;;;;;;18.67;8.95;;;20.30;99.90;;;;;;5037050;28;20428;-80
2023/06/26 05:51:41;;;;;;;15.82;7.03;;;20.30;99.90;;;;;;5037335;28;20036;-81
2023/06/26 05:54:07;;;;;;;15.23;7.03;;;20.20;99.90;;;;;;5045865;28;20431;-80
2023/06/26 05:56:33;;;;;;;14.88;6.45;;;20.10;99.90;;;;;;5041546;28;20036;-80
2023/06/26 05:59:01;;;;;;;12.13;6.57;;;20.00;99.90;;;;;;5042044;28;20352;-81
2023/06/26 06:01:26;;;;;;;10.25;6.22;;;19.90;99.90;;;;;;5044817;28;20522;-80
2023/06/26 06:03:52;;;;;;;14.63;6.15;;;20.00;99.90;;;;;;5043183;28;20040;-81
2023/06/26 06:06:18;;;;;;;9.95;5.50;;;20.00;99.90;;;;;;5043324;28;20128;-80
2023/06/26 06:08:43;;;;;;;12.68;5.57;;;20.00;99.90;;;;;;5024814;28;20508;-80
2023/06/26 06:11:09;;;;;;;13.85;6.00;;;20.10;99.90;;;;;;5027335;28;20508;-80
2023/06/26 06:13:34;;;;;;;10.75;5.60;;;20.00;99.90;;;;;;5031988;28;20036;-81
2023/06/26 06:16:00;;;;;;;11.35;5.50;;;20.10;99.90;;;;;;5026359;28;20092;-80
2023/06/26 06:18:26;;;;;;;11.70;4.70;;;20.10;99.90;;;;;;5067935;28;20128;-81
2023/06/26 06:20:51;;;;;;;11.25;4.95;;;20.10;99.90;;;;;;5068968;28;20602;-81
2023/06/26 06:23:17;;;;;;;9.38;4.32;;;20.10;99.90;;;;;;5024640;28;20052;-81
2023/06/26 06:25:42;;;;;;;9.30;4.20;;;20.40;99.90;;;;;;5034524;28;20132;-81
2023/06/26 06:28:08;;;;;;;6.63;3.55;;;20.20;99.90;;;;;;5026094;28;20062;-81
2023/06/26 06:30:34;;;;;;;9.70;3.78;;;20.30;99.90;;;;;;5041834;28;20072;-81
2023/06/26 06:32:59;;;;;;;17.10;4.40;;;20.20;99.90;;;;;;5067628;28;20355;-81
2023/06/26 06:35:25;;;;;;;9.57;4.22;;;20.20;99.90;;;;;;5032948;28;20055;-81
2023/06/26 06:37:51;;;;;;;12.13;3.95;;;20.30;99.90;;;;;;5068584;28;20040;-81
2023/06/26 06:40:17;;;;;;;9.85;3.80;;;20.30;99.90;;;;;;5035613;28;20053;-81
2023/06/26 06:42:43;;;;;;;9.60;4.43;;;20.40;99.90;;;;;;5019536;28;20043;-81
2023/06/26 06:45:10;;;;;;;10.60;4.28;;;20.40;99.90;;;;;;5041885;28;20454;-81
2023/06/26 06:47:36;;;;;;;15.30;3.92;;;20.50;99.90;;;;;;5038505;28;20431;-81
2023/06/26 06:50:07;;;;;;;11.90;3.60;;;20.80;99.90;;;;;;5038593;28;20504;-81
2023/06/26 06:52:40;;;;;;;7.68;3.13;;;21.00;99.90;;;;;;5037242;28;20056;-81
2023/06/26 06:55:08;;;;;;;9.63;3.33;;;20.80;99.90;;;;;;5071347;28;20047;-81
2023/06/26 06:57:38;;;;;;;10.77;3.20;;;21.10;99.90;;;;;;5041674;28;20065;-81
2023/06/26 07:00:09;;;;;;;9.32;2.67;;;21.00;99.90;;;;;;5041326;28;20052;-81
2023/06/26 07:02:37;;;;;;;8.00;2.97;;;20.70;99.90;;;;;;5020698;28;20040;-82
2023/06/26 07:05:03;;;;;;;7.38;2.83;;;20.80;99.90;;;;;;5039975;28;20507;-81
2023/06/26 07:07:31;;;;;;;12.18;2.78;;;20.90;99.90;;;;;;5065965;28;20036;-81
2023/06/26 07:10:08;;;;;;;8.07;2.67;;;21.10;99.90;;;;;;5067323;28;20415;-81
2023/06/26 07:12:34;;;;;;;9.23;2.63;;;21.30;99.90;;;;;;5020053;28;20344;-81
2023/06/26 07:15:02;;;;;;;8.70;2.50;;;21.20;99.90;;;;;;5040010;28;20506;-81
2023/06/26 07:17:28;;;;;;;6.53;2.67;;;21.50;99.90;;;;;;5034271;28;20052;-81
2023/06/26 07:19:53;;;;;;;9.02;2.78;;;21.70;99.90;;;;;;5033574;28;20040;-82
2023/06/26 07:22:20;;;;;;;6.22;2.70;;;21.80;99.90;;;;;;5030858;28;20082;-81
2023/06/26 07:24:47;;;;;;;6.97;2.45;;;21.60;99.90;;;;;;5024414;28;20064;-81
2023/06/26 07:27:18;;;;;;;6.68;2.50;;;21.30;99.90;;;;;;5028467;28;20024;-81
2023/06/26 07:29:43;;;;;;;6.80;2.60;;;21.10;99.90;;;;;;5066709;28;20033;-81
2023/06/26 07:32:09;;;;;;;5.47;2.65;;;21.20;99.90;;;;;;5030937;28;20052;-82
2023/06/26 07:34:35;;;;;;;8.98;2.85;;;21.40;99.90;;;;;;5023962;28;20460;-81
2023/06/26 07:37:00;;;;;;;6.95;2.47;;;21.40;99.90;;;;;;5041628;28;20068;-81
2023/06/26 07:39:26;;;;;;;8.10;2.25;;;21.30;99.90;;;;;;5029799;28;20192;-81
2023/06/26 07:41:52;;;;;;;4.18;1.73;;;21.40;99.90;;;;;;5049861;28;20107;-81
2023/06/26 07:44:17;;;;;;;7.68;2.20;;;21.50;99.90;;;;;;5031837;28;20056;-81
2023/06/26 07:46:44;;;;;;;5.03;1.98;;;21.60;99.90;;;;;;5033869;28;20048;-81
2023/06/26 07:49:10;;;;;;;6.75;2.17;;;21.80;99.90;;;;;;5022183;28;20136;-81
2023/06/26 07:51:36;;;;;;;6.25;2.30;;;21.80;99.90;;;;;;5021322;28;20048;-82
2023/06/26 07:54:02;;;;;;;8.18;2.30;;;22.20;99.90;;;;;;5038851;28;20036;-81
2023/06/26 07:56:27;;;;;;;6.32;2.15;;;22.20;99.90;;;;;;5023112;28;20043;-81
2023/06/26 07:58:53;;;;;;;6.28;2.30;;;22.00;99.90;;;;;;5028637;28;20048;-81
2023/06/26 08:01:19;;;;;;;5.75;2.20;;;21.50;99.90;;;;;;5048490;28;20048;-81
2023/06/26 08:03:45;;;;;;;5.72;2.05;;;21.60;99.90;;;;;;5012016;28;20032;-81
2023/06/26 08:06:10;;;;;;;6.72;1.80;;;21.90;99.90;;;;;;5038346;28;20116;-81
2023/06/26 08:08:36;;;;;;;5.63;2.10;;;22.20;99.90;;;;;;5037848;28;20474;-81
2023/06/26 08:11:02;;;;;;;3.83;1.67;;;22.30;99.90;;;;;;5036991;28;20142;-81
2023/06/26 08:13:28;;;;;;;4.30;2.00;;;21.90;99.90;;;;;;5031897;28;20040;-81
2023/06/26 08:15:54;;;;;;;4.40;2.13;;;21.80;99.90;;;;;;5020928;28;20506;-81
2023/06/26 08:18:19;;;;;;;5.18;1.55;;;21.80;99.90;;;;;;5023864;28;20226;-82
2023/06/26 08:20:45;;;;;;;4.43;1.60;;;21.80;99.90;;;;;;5034253;28;20525;-81
2023/06/26 08:23:10;;;;;;;8.23;2.63;;;21.80;99.90;;;;;;5055548;28;20027;-81
2023/06/26 08:25:36;;;;;;;4.88;2.05;;;21.70;99.90;;;;;;5050510;28;20553;-81
2023/06/26 08:28:03;;;;;;;6.65;1.80;;;21.50;99.90;;;;;;5021459;28;20632;-81
2023/06/26 08:30:28;;;;;;;5.40;1.92;;;21.90;99.90;;;;;;5024694;28;20048;-81
2023/06/26 08:32:55;;;;;;;6.55;2.22;;;21.90;99.90;;;;;;5037817;28;20082;-81
2023/06/26 08:35:21;;;;;;;7.20;1.77;;;22.00;99.90;;;;;;5066198;28;20076;-82
2023/06/26 08:37:47;;;;;;;4.88;1.65;;;21.70;99.90;;;;;;5039698;28;20131;-81
2023/06/26 08:40:16;;;;;;;4.25;2.00;;;21.80;99.90;;;;;;5039320;28;20139;-82
2023/06/26 08:42:42;;;;;;;5.15;2.00;;;22.10;99.90;;;;;;5044953;28;20136;-81
2023/06/26 08:45:10;;;;;;;3.83;1.98;;;22.20;99.90;;;;;;5021123;28;20301;-82
2023/06/26 08:47:37;;;;;;;4.15;1.92;;;21.50;99.90;;;;;;5035200;28;20090;-80
2023/06/26 08:50:13;;;;;;;5.78;2.33;;;22.40;99.90;;;;;;5032652;28;20040;-81
2023/06/26 08:53:33;;;;;;;4.43;1.98;;;22.40;99.90;;;;;;5051690;28;20040;-81
2023/06/26 08:56:00;;;;;;;3.67;1.95;;;22.20;99.90;;;;;;4942923;28;20046;-81
2023/06/26 08:58:26;;;;;;;7.43;2.35;;;21.80;99.90;;;;;;4960252;28;20084;-81
2023/06/26 09:00:52;;;;;;;4.50;2.00;;;21.50;99.90;;;;;;4982041;28;20045;-82
2023/06/26 09:03:17;;;;;;;5.07;2.35;;;22.20;99.90;;;;;;5020589;28;20028;-81
2023/06/26 09:05:43;;;;;;;3.17;2.05;;;22.00;99.90;;;;;;5021445;28;20402;-81
2023/06/26 09:08:09;;;;;;;6.07;2.20;;;22.20;99.90;;;;;;5048800;28;20033;-81
2023/06/26 09:10:35;;;;;;;4.50;2.30;;;21.90;99.90;;;;;;5039302;28;20054;-81
2023/06/26 09:13:02;;;;;;;3.15;2.03;;;21.70;99.90;;;;;;5034024;28;20404;-82
2023/06/26 09:15:36;;;;;;;9.55;2.53;;;21.60;99.90;;;;;;5023941;28;20040;-81
2023/06/26 09:18:05;;;;;;;7.63;2.33;;;21.50;99.90;;;;;;5036183;28;20048;-80
2023/06/26 09:20:33;;;;;;;4.70;2.33;;;21.40;99.90;;;;;;5021194;28;20063;-81
2023/06/26 09:23:02;;;;;;;3.90;2.30;;;21.90;99.90;;;;;;5022622;28;20055;-81
2023/06/26 09:25:28;;;;;;;8.52;2.67;;;22.20;99.90;;;;;;5023842;28;20052;-81
2023/06/26 09:27:55;;;;;;;4.70;1.98;;;22.80;99.90;;;;;;5051582;28;20115;-81
2023/06/26 09:30:21;;;;;;;3.75;2.00;;;22.40;99.90;;;;;;5042626;28;20577;-81
2023/06/26 09:32:47;;;;;;;2.75;2.03;;;21.90;99.90;;;;;;5034371;28;20127;-81
2023/06/26 09:35:13;;;;;;;6.25;2.03;;;21.70;99.90;;;;;;5052832;28;20094;-81
2023/06/26 09:37:40;;;;;;;9.18;2.25;;;21.80;99.90;;;;;;5052744;28;20055;-81
2023/06/26 09:40:07;;;;;;;4.22;2.22;;;21.80;99.90;;;;;;5045253;28;20112;-81
2023/06/26 09:42:32;;;;;;;4.07;2.08;;;21.70;99.90;;;;;;5033120;28;20044;-81
2023/06/26 09:44:58;;;;;;;3.45;2.00;;;21.90;99.90;;;;;;5028178;28;20040;-81
2023/06/26 09:47:24;;;;;;;3.60;2.20;;;21.80;1.00;;;;;;5030354;28;20048;-81
2023/06/26 09:49:51;;;;;;;5.68;2.28;;;21.90;75.30;;;;;;5042896;28;20041;-81
2023/06/26 09:52:19;;;;;;;4.43;2.30;;;22.40;99.90;;;;;;5042068;28;20077;-81
2023/06/26 09:54:45;;;;;;;4.97;2.70;;;22.40;99.90;;;;;;5041770;28;20040;-81
2023/06/26 09:57:13;;;;;;;5.78;2.58;;;21.80;99.90;;;;;;5027727;28;20044;-81
2023/06/26 09:59:40;;;;;;;5.55;2.67;;;21.50;99.90;;;;;;5025273;28;20102;-81
2023/06/26 10:02:06;;;;;;;5.20;2.67;;;22.10;99.90;;;;;;5032373;28;20575;-81
2023/06/26 10:04:32;;;;;;;8.05;2.95;;;22.80;99.90;;;;;;5020475;28;20041;-81
2023/06/26 10:07:02;;;;;;;5.97;3.03;;;23.00;99.90;;;;;;5026934;28;20032;-80
2023/06/26 10:09:29;;;;;;;5.20;2.63;;;22.30;1.00;;;;;;5037463;28;20190;-80
2023/06/26 10:12:06;;;;;;;4.55;2.60;;;22.20;99.90;;;;;;5036287;28;20049;-81
2023/06/26 10:14:37;;;;;;;5.55;2.47;;;22.50;99.90;;;;;;5027863;28;20325;-81
2023/06/26 10:17:06;;;;;;;5.28;2.65;;;22.60;1.00;;;;;;5036583;28;20048;-81
2023/06/26 10:19:34;;;;;;;6.20;2.80;;;22.60;1.00;;;;;;5032835;28;20060;-81
2023/06/26 10:22:03;;;;;;;5.20;2.60;;;22.50;99.90;;;;;;5043623;28;20439;-81
2023/06/26 10:24:31;;;;;;;4.00;2.28;;;23.30;99.90;;;;;;5039981;28;20608;-81
2023/06/26 10:27:16;;;;;;;6.30;2.55;;;23.70;1.00;;;;;;5024878;28;20041;-82
2023/06/26 10:29:48;;;;;;;5.20;2.45;;;23.50;99.90;;;;;;5070091;28;20037;-81
2023/06/26 10:32:15;;;;;;;5.75;2.47;;;22.80;1.00;;;;;;5022499;28;20044;-81
2023/06/26 10:34:44;;;;;;;4.72;2.30;;;22.60;99.90;;;;;;5035217;28;20083;-81
2023/06/26 10:37:12;;;;;;;4.28;2.55;;;22.30;1.00;;;;;;5050548;28;20068;-81
2023/06/26 10:39:52;;;;;;;5.80;2.33;;;22.30;1.00;;;;;;5023596;28;20483;-81
2023/06/26 10:42:18;;;;;;;3.05;1.90;;;22.60;99.90;;;;;;5067875;28;20048;-81
2023/06/26 10:44:48;;;;;;;4.35;2.25;;;22.90;99.90;;;;;;5026407;28;20029;-81
2023/06/26 10:47:33;;;;;;;6.28;2.10;;;22.10;99.90;;;;;;5041820;28;20052;-81
2023/06/26 10:50:20;;;;;;;5.22;2.10;;;23.10;96.90;;;;;;5038320;28;20075;-81
2023/06/26 10:53:06;;;;;;;5.15;2.25;;;23.40;99.90;;;;;;5036224;28;20473;-81
2023/06/26 10:55:32;;;;;;;3.67;2.40;;;23.10;99.90;;;;;;5043094;28;20115;-81
2023/06/26 10:57:57;;;;;;;5.45;2.63;;;23.10;99.90;;;;;;5024439;28;20054;-82
2023/06/26 11:00:23;;;;;;;7.05;2.53;;;22.70;99.90;;;;;;5038962;28;20482;-81
2023/06/26 11:02:52;;;;;;;6.35;2.50;;;22.90;99.90;;;;;;5034961;28;20045;-81
2023/06/26 11:05:26;;;;;;;6.55;2.30;;;22.60;99.90;;;;;;5023304;28;20040;-81
2023/06/26 11:08:08;;;;;;;2.95;1.90;;;23.10;99.90;;;;;;5035835;28;20075;-81
2023/06/26 11:10:52;;;;;;;3.60;1.77;;;22.90;99.90;;;;;;5041192;28;20040;-80
2023/06/26 11:13:19;;;;;;;4.97;2.00;;;22.50;99.90;;;;;;5016287;28;20101;-81
2023/06/26 11:15:46;;;;;;;5.95;2.20;;;22.90;99.90;;;;;;5033859;28;20052;-81
2023/06/26 11:18:13;;;;;;;9.05;2.58;;;22.80;1.00;;;;;;5027962;28;20244;-81
2023/06/26 11:20:39;;;;;;;9.65;2.10;;;22.90;99.90;;;;;;5028217;28;20118;-80
2023/06/26 11:23:06;;;;;;;5.00;2.00;;;22.50;1.00;;;;;;5041363;28;20044;-80
2023/06/26 11:25:36;;;;;;;4.57;1.75;;;22.60;99.90;;;;;;5067977;28;20048;-81
2023/06/26 11:28:04;;;;;;;3.58;1.80;;;22.40;1.00;;;;;;5020946;28;20053;-81
2023/06/26 11:30:29;;;;;;;6.22;1.88;;;22.60;49.60;;;;;;5043103;28;20052;-81
2023/06/26 11:33:09;;;;;;;6.38;1.70;;;22.20;1.00;;;;;;5032104;28;20068;-80
2023/06/26 11:35:35;;;;;;;3.97;1.80;;;23.00;1.00;;;;;;5039599;28;20561;-81
2023/06/26 11:38:04;;;;;;;4.18;2.15;;;22.60;99.90;;;;;;5042029;28;20554;-80
2023/06/26 11:40:32;;;;;;;4.18;1.60;;;22.90;1.00;;;;;;5039226;28;20056;-81
2023/06/26 11:43:00;;;;;;;5.15;1.70;;;23.50;99.90;;;;;;5022912;28;20128;-81
2023/06/26 11:45:28;;;;;;;5.72;2.00;;;23.20;99.90;;;;;;5030806;28;20329;-81
2023/06/26 11:47:56;;;;;;;10.35;2.00;;;22.50;99.90;;;;;;5064335;28;20123;-81
2023/06/26 11:50:22;;;;;;;4.60;1.60;;;22.90;99.90;;;;;;5030344;28;20575;-81
2023/06/26 11:52:59;;;;;;;3.25;1.42;;;22.80;1.00;;;;;;5067420;28;20104;-81
2023/06/26 11:55:25;;;;;;;2.90;1.27;;;22.90;1.00;;;;;;5030765;28;20147;-81
2023/06/26 11:57:56;;;;;;;3.03;1.27;;;22.50;1.00;;;;;;5037138;28;20075;-80
2023/06/26 12:00:23;;;;;;;5.47;1.48;;;22.50;68.70;;;;;;5038982;28;20044;-81
2023/06/26 12:02:49;;;;;;;14.82;1.75;;;22.10;71.00;;;;;;5034644;28;20045;-81
2023/06/26 12:05:16;;;;;;;6.22;1.50;;;22.60;99.90;;;;;;5032972;28;20143;-81
2023/06/26 12:07:45;;;;;;;3.63;1.40;;;22.90;99.90;;;;;;5040846;28;20825;-81
2023/06/26 12:10:11;;;;;;;5.65;1.67;;;22.70;10.90;;;;;;5025640;28;20276;-81
2023/06/26 12:12:37;;;;;;;6.53;1.50;;;22.30;1.00;;;;;;5036481;28;20422;-81
2023/06/26 12:15:05;;;;;;;6.63;1.60;;;22.70;1.00;;;;;;5037888;28;20585;-81
2023/06/26 12:17:30;;;;;;;4.13;1.65;;;22.90;99.90;;;;;;5029180;28;20109;-81
2023/06/26 12:19:56;;;;;;;4.45;1.50;;;23.00;99.90;;;;;;5037537;28;20455;-81
2023/06/26 12:22:22;;;;;;;5.20;1.55;;;23.00;99.90;;;;;;5067414;28;20392;-81
2023/06/26 12:24:48;;;;;;;5.07;1.70;;;22.70;99.90;;;;;;5011562;28;20363;-81
2023/06/26 12:27:16;;;;;;;3.35;1.40;;;22.40;99.90;;;;;;5022352;28;20507;-80
2023/06/26 12:29:50;;;;;;;3.65;1.33;;;23.00;1.00;;;;;;5039108;28;20476;-81
2023/06/26 12:32:16;;;;;;;4.57;1.40;;;23.00;99.90;;;;;;5041179;28;20052;-81
2023/06/26 12:34:46;;;;;;;4.25;1.40;;;22.60;99.90;;;;;;5050678;28;20041;-80
2023/06/26 12:37:13;;;;;;;3.83;1.50;;;22.50;94.70;;;;;;5039736;28;20041;-81
2023/06/26 12:40:16;;;;;;;3.13;1.55;;;22.30;99.90;;;;;;5038664;28;20040;-81
2023/06/26 12:42:42;;;;;;;5.40;1.27;;;22.10;92.60;;;;;;5036231;28;20049;-81